createdAt,value
2022-12-06T00:01:21.751Z,13.77
2022-12-06T00:04:12.139Z,12.32
2022-12-06T00:07:00.106Z,12.57
2022-12-06T00:09:47.798Z,15.52
2022-12-06T00:12:35.498Z,16.58
2022-12-06T00:15:23.154Z,12.00
2022-12-06T00:18:10.672Z,13.48
2022-12-06T00:21:14.242Z,14.02
2022-12-06T00:24:07.956Z,15.02
2022-12-06T00:26:55.728Z,15.02
2022-12-06T00:29:43.410Z,15.90
2022-12-06T00:32:32.124Z,18.70
2022-12-06T00:35:19.732Z,15.90
2022-12-06T00:38:07.375Z,16.50
2022-12-06T00:41:04.302Z,13.60
2022-12-06T00:43:53.038Z,10.40
2022-12-06T00:46:40.915Z,14.57
2022-12-06T00:49:28.638Z,15.40
2022-12-06T00:52:16.105Z,15.80
2022-12-06T00:55:04.029Z,17.02
2022-12-06T00:57:51.738Z,15.13
2022-12-06T01:00:40.025Z,17.27
2022-12-06T01:03:32.105Z,10.43
2022-12-06T01:06:28.330Z,13.63
2022-12-06T01:09:15.881Z,14.20
2022-12-06T01:12:03.584Z,15.00
2022-12-06T01:14:51.230Z,14.25
2022-12-06T01:17:38.870Z,15.15
2022-12-06T01:20:26.626Z,13.60
2022-12-06T01:23:15.097Z,13.02
2022-12-06T01:26:04.403Z,12.00
2022-12-06T01:28:52.962Z,11.77
2022-12-06T01:31:40.674Z,10.43
2022-12-06T01:34:28.308Z,16.73
2022-12-06T01:37:16.007Z,15.98
2022-12-06T01:40:04.017Z,14.00
2022-12-06T01:42:51.662Z,13.35
2022-12-06T01:46:16.985Z,21.30
2022-12-06T01:49:13.688Z,19.33
2022-12-06T01:52:06.288Z,13.57
2022-12-06T01:54:54.633Z,18.20
2022-12-06T01:57:42.537Z,15.32
2022-12-06T02:00:30.288Z,14.02
2022-12-06T02:03:24.659Z,15.80
2022-12-06T02:06:12.781Z,11.93
2022-12-06T02:09:03.894Z,14.05
2022-12-06T02:11:51.445Z,16.05
2022-12-06T02:14:39.918Z,17.35
2022-12-06T02:17:36.458Z,14.52
2022-12-06T02:20:36.447Z,17.60
2022-12-06T02:23:45.307Z,17.10
2022-12-06T02:26:38.608Z,11.95
2022-12-06T02:29:32.537Z,15.00
2022-12-06T02:32:32.320Z,13.88
2022-12-06T02:35:40.959Z,19.63
2022-12-06T02:39:05.780Z,12.68
2022-12-06T02:42:19.656Z,11.20
2022-12-06T02:45:14.713Z,9.82
2022-12-06T02:48:10.559Z,15.82
2022-12-06T02:51:03.073Z,13.00
2022-12-06T02:53:53.258Z,13.52
2022-12-06T02:56:40.831Z,13.02
2022-12-06T02:59:28.553Z,14.98
2022-12-06T03:02:16.362Z,19.13
2022-12-06T03:05:08.297Z,18.52
2022-12-06T03:07:58.076Z,19.15
2022-12-06T03:10:56.255Z,12.50
2022-12-06T03:14:14.486Z,11.65
2022-12-06T03:17:15.607Z,19.85
2022-12-06T03:20:30.850Z,16.58
2022-12-06T03:23:24.131Z,10.00
2022-12-06T03:26:16.232Z,12.30
2022-12-06T03:29:07.207Z,14.20
2022-12-06T03:31:57.948Z,15.18
2022-12-06T03:34:50.883Z,17.38
2022-12-06T03:37:41.515Z,12.63
2022-12-06T03:40:34.776Z,12.93
2022-12-06T03:43:22.777Z,22.60
2022-12-06T03:46:17.883Z,17.85
2022-12-06T03:49:12.656Z,21.70
2022-12-06T03:52:00.438Z,20.83
2022-12-06T03:54:48.231Z,16.65
2022-12-06T03:57:36.049Z,17.20
2022-12-06T04:00:23.682Z,14.23
2022-12-06T04:03:11.305Z,16.65
2022-12-06T04:06:01.463Z,13.82
2022-12-06T04:08:49.240Z,14.65
2022-12-06T04:11:36.841Z,18.98
2022-12-06T04:14:32.523Z,11.75
2022-12-06T04:17:38.381Z,16.40
2022-12-06T04:20:27.649Z,17.02
2022-12-06T04:23:15.358Z,14.27
2022-12-06T04:26:05.079Z,18.77
2022-12-06T04:29:12.315Z,18.25
2022-12-06T04:32:18.476Z,23.98
2022-12-06T04:35:24.573Z,20.00
2022-12-06T04:38:30.432Z,16.98
2022-12-06T04:41:37.980Z,16.60
2022-12-06T04:44:25.551Z,16.60
2022-12-06T04:47:13.598Z,22.83
2022-12-06T04:50:01.436Z,15.27
2022-12-06T04:52:49.490Z,21.98
2022-12-06T04:55:37.188Z,21.80
2022-12-06T04:58:24.966Z,22.77
2022-12-06T05:01:12.812Z,22.23
2022-12-06T05:04:00.570Z,19.05
2022-12-06T05:06:51.462Z,17.27
2022-12-06T05:09:40.617Z,19.73
2022-12-06T05:12:28.504Z,17.80
2022-12-06T05:15:16.333Z,19.42
2022-12-06T05:18:04.207Z,26.63
2022-12-06T05:20:52.215Z,23.52
2022-12-06T05:23:39.954Z,21.20
2022-12-06T05:26:29.573Z,14.65
2022-12-06T05:29:17.826Z,21.10
2022-12-06T05:32:05.738Z,17.10
2022-12-06T05:34:53.315Z,20.42
2022-12-06T05:37:41.018Z,22.10
2022-12-06T05:40:28.734Z,28.85
2022-12-06T05:43:17.182Z,18.95
2022-12-06T05:46:05.136Z,13.15
2022-12-06T05:48:52.818Z,20.77
2022-12-06T05:51:40.719Z,16.00
2022-12-06T05:54:28.423Z,20.02
2022-12-06T05:57:16.173Z,20.30
2022-12-06T06:00:05.553Z,23.00
2022-12-06T06:02:54.210Z,24.02
2022-12-06T06:05:56.309Z,18.80
2022-12-06T06:08:43.906Z,20.33
2022-12-06T06:11:31.525Z,17.55
2022-12-06T06:14:19.355Z,23.13
2022-12-06T06:17:07.673Z,18.58
2022-12-06T06:19:55.212Z,22.25
2022-12-06T06:22:42.894Z,32.65
2022-12-06T06:25:30.742Z,26.77
2022-12-06T06:28:19.199Z,41.88
2022-12-06T06:31:07.364Z,37.00
2022-12-06T06:33:55.013Z,28.88
2022-12-06T06:36:45.856Z,22.70
2022-12-06T06:39:33.910Z,20.20
2022-12-06T06:42:21.689Z,23.25
2022-12-06T06:45:09.836Z,38.75
2022-12-06T06:47:57.400Z,34.47
2022-12-06T06:50:45.454Z,32.55
2022-12-06T06:53:33.643Z,19.17
2022-12-06T06:56:21.346Z,21.55
2022-12-06T06:59:09.022Z,21.40
2022-12-06T07:01:56.890Z,24.63
2022-12-06T07:04:45.338Z,24.50
2022-12-06T07:07:35.488Z,26.95
2022-12-06T07:10:25.594Z,28.83
2022-12-06T07:13:13.305Z,25.55
2022-12-06T07:16:04.428Z,20.50
2022-12-06T07:18:52.093Z,24.85
2022-12-06T07:21:40.121Z,18.58
2022-12-06T07:24:27.756Z,21.17
2022-12-06T07:27:15.952Z,23.50
2022-12-06T07:30:05.961Z,18.45
2022-12-06T07:32:54.220Z,20.85
2022-12-06T07:36:10.880Z,18.52
2022-12-06T07:38:53.316Z,20.08
2022-12-06T07:41:59.435Z,18.67
2022-12-06T07:45:03.136Z,22.73
2022-12-06T07:47:50.970Z,22.45
2022-12-06T07:50:38.572Z,49.55
2022-12-06T07:53:26.281Z,41.53
2022-12-06T07:56:13.921Z,39.28
2022-12-06T07:59:02.495Z,28.23
2022-12-06T08:01:52.411Z,39.33
2022-12-06T08:04:40.096Z,22.60
2022-12-06T08:07:28.207Z,28.67
2022-12-06T08:10:15.922Z,28.00
2022-12-06T08:13:04.207Z,27.70
2022-12-06T08:15:51.936Z,27.15
2022-12-06T08:18:41.283Z,25.65
2022-12-06T08:21:29.218Z,39.17
2022-12-06T08:24:16.861Z,38.70
2022-12-06T08:27:05.171Z,37.55
2022-12-06T08:29:52.955Z,34.65
2022-12-06T08:32:40.706Z,28.30
2022-12-06T08:35:28.380Z,25.52
2022-12-06T08:38:16.823Z,27.80
2022-12-06T08:41:05.761Z,24.65
2022-12-06T08:43:53.600Z,21.42
2022-12-06T08:46:41.682Z,25.10
2022-12-06T08:49:30.447Z,27.38
2022-12-06T08:52:18.382Z,20.13
2022-12-06T08:55:06.542Z,27.48
2022-12-06T08:57:54.625Z,26.83
2022-12-06T09:00:42.260Z,22.52
2022-12-06T09:03:29.835Z,22.75
2022-12-06T09:06:18.813Z,24.52
2022-12-06T09:09:07.169Z,21.58
2022-12-06T09:11:54.882Z,24.88
2022-12-06T09:14:42.549Z,21.50
2022-12-06T09:17:30.263Z,29.25
2022-12-06T09:20:18.543Z,22.17
2022-12-06T09:23:06.312Z,20.10
2022-12-06T09:25:54.131Z,33.58
2022-12-06T09:28:43.324Z,25.88
2022-12-06T09:31:31.622Z,33.28
2022-12-06T09:34:19.271Z,24.15
2022-12-06T09:37:13.417Z,25.48
2022-12-06T09:40:12.112Z,32.47
2022-12-06T09:43:02.566Z,27.60
2022-12-06T09:46:05.975Z,29.33
2022-12-06T09:48:56.465Z,25.65
2022-12-06T09:52:02.668Z,29.42
2022-12-06T09:55:05.903Z,48.38
2022-12-06T09:58:11.665Z,38.22
2022-12-06T10:01:19.909Z,34.97
2022-12-06T10:04:28.628Z,38.03
2022-12-06T10:07:40.761Z,27.83
2022-12-06T10:10:47.101Z,24.85
2022-12-06T10:13:46.469Z,29.52
2022-12-06T10:17:08.718Z,28.52
2022-12-06T10:20:06.163Z,25.17
2022-12-06T10:23:08.876Z,22.83
2022-12-06T10:26:06.135Z,30.65
2022-12-06T10:29:09.792Z,30.75
2022-12-06T10:32:03.481Z,23.38
2022-12-06T10:35:05.417Z,25.73
2022-12-06T10:38:16.125Z,19.23
2022-12-06T10:41:27.227Z,31.50
2022-12-06T10:44:27.020Z,24.83
2022-12-06T10:47:17.200Z,23.02
2022-12-06T10:50:29.144Z,19.27
2022-12-06T10:53:21.127Z,20.85
2022-12-06T10:56:21.336Z,22.70
2022-12-06T10:59:27.371Z,21.27
2022-12-06T11:02:41.886Z,18.33
2022-12-06T11:05:42.496Z,22.75
2022-12-06T11:08:47.074Z,20.27
2022-12-06T11:11:37.028Z,14.57
2022-12-06T11:14:33.233Z,21.63
2022-12-06T11:17:29.964Z,23.23
2022-12-06T11:20:28.731Z,22.80
2022-12-06T11:23:32.479Z,25.10
2022-12-06T11:26:34.366Z,18.92
2022-12-06T11:29:22.744Z,21.98
2022-12-06T11:32:14.481Z,24.05
2022-12-06T11:35:02.303Z,22.65
2022-12-06T11:37:56.489Z,27.50
2022-12-06T11:40:47.120Z,20.90
2022-12-06T11:43:36.205Z,14.55
2022-12-06T11:46:24.783Z,17.65
2022-12-06T11:49:21.123Z,17.65
2022-12-06T11:52:18.815Z,21.55
2022-12-06T11:55:16.879Z,17.55
2022-12-06T11:58:13.780Z,23.25
2022-12-06T12:01:03.359Z,20.30
2022-12-06T12:03:51.067Z,20.35
2022-12-06T12:06:38.869Z,19.80
2022-12-06T12:09:30.739Z,20.55
2022-12-06T12:12:59.400Z,23.08
2022-12-06T12:15:53.760Z,19.40
2022-12-06T12:19:00.624Z,19.45
2022-12-06T12:21:53.869Z,27.60
2022-12-06T12:25:17.937Z,26.23
2022-12-06T12:27:59.378Z,26.08
2022-12-06T12:30:54.974Z,14.55
2022-12-06T12:33:42.695Z,21.15
2022-12-06T12:36:30.376Z,23.15
2022-12-06T12:39:38.938Z,24.73
2022-12-06T12:42:40.250Z,18.10
2022-12-06T12:45:28.292Z,26.65
2022-12-06T12:48:27.377Z,22.02
2022-12-06T12:51:28.562Z,23.58
2022-12-06T12:54:27.501Z,23.73
2022-12-06T12:57:15.303Z,23.50
2022-12-06T13:00:03.235Z,26.35
2022-12-06T13:03:07.813Z,23.42
2022-12-06T13:06:02.621Z,29.73
2022-12-06T13:08:50.352Z,21.80
2022-12-06T13:11:46.982Z,24.02
2022-12-06T13:14:37.679Z,21.88
2022-12-06T13:17:29.397Z,22.33
2022-12-06T13:20:26.779Z,38.40
2022-12-06T13:23:20.586Z,34.28
2022-12-06T13:26:29.080Z,27.35
2022-12-06T13:29:47.322Z,30.25
2022-12-06T13:32:46.101Z,28.80
2022-12-06T13:36:11.975Z,38.40
2022-12-06T13:39:00.034Z,54.97
2022-12-06T13:42:16.543Z,31.63
2022-12-06T13:45:07.327Z,29.45
2022-12-06T13:47:54.969Z,30.75
2022-12-06T13:50:42.511Z,48.10
2022-12-06T13:53:36.040Z,35.97
2022-12-06T13:56:41.268Z,29.08
2022-12-06T13:59:38.416Z,28.70
2022-12-06T14:02:46.717Z,31.75
2022-12-06T14:08:57.440Z,30.83
2022-12-06T14:11:45.367Z,27.13
2022-12-06T14:14:33.084Z,42.15
2022-12-06T14:17:52.593Z,41.75
2022-12-06T14:20:31.261Z,37.47
2022-12-06T14:23:29.280Z,29.40
2022-12-06T14:26:23.652Z,25.45
2022-12-06T14:29:26.779Z,23.65
2022-12-06T14:32:17.718Z,30.35
2022-12-06T14:35:13.118Z,39.33
2022-12-06T14:38:03.499Z,34.05
2022-12-06T14:41:10.970Z,30.70
2022-12-06T14:43:58.605Z,34.13
2022-12-06T14:46:48.434Z,36.92
2022-12-06T14:49:55.223Z,40.55
2022-12-06T14:53:16.767Z,54.25
2022-12-06T14:56:29.510Z,40.83
2022-12-06T14:59:39.048Z,49.72
2022-12-06T15:02:29.370Z,47.97
2022-12-06T15:05:37.685Z,32.33
2022-12-06T15:08:28.132Z,36.90
2022-12-06T15:11:38.507Z,43.63
2022-12-06T15:14:45.807Z,34.50
2022-12-06T15:17:33.404Z,29.92
2022-12-06T15:20:21.185Z,33.67
2022-12-06T15:23:41.147Z,25.00
2022-12-06T15:26:28.775Z,27.05
2022-12-06T15:29:17.313Z,23.25
2022-12-06T15:32:02.055Z,29.58
2022-12-06T15:34:50.995Z,25.05
2022-12-06T15:37:40.742Z,27.35
2022-12-06T15:40:29.754Z,32.45
2022-12-06T15:43:34.159Z,29.38
2022-12-06T15:46:27.605Z,26.02
2022-12-06T15:49:27.691Z,37.08
2022-12-06T15:52:24.762Z,108.97
2022-12-06T15:55:19.985Z,44.97
2022-12-06T15:58:07.701Z,58.13
2022-12-06T16:00:56.484Z,30.75
2022-12-06T16:03:44.362Z,37.28
2022-12-06T16:06:32.373Z,36.92
2022-12-06T16:09:22.172Z,31.52
2022-12-06T16:12:10.513Z,27.13
2022-12-06T16:14:58.251Z,29.77
2022-12-06T16:17:46.252Z,31.65
2022-12-06T16:20:34.099Z,29.83
2022-12-06T16:26:54.883Z,32.38
2022-12-06T16:29:42.521Z,31.83
2022-12-06T16:32:30.283Z,30.85
2022-12-06T16:35:18.136Z,32.88
2022-12-06T16:38:09.780Z,36.33
2022-12-06T16:41:02.213Z,28.38
2022-12-06T16:43:52.749Z,30.50
2022-12-06T16:46:43.979Z,35.78
2022-12-06T16:49:48.734Z,39.90
2022-12-06T16:52:36.961Z,40.70
2022-12-06T16:55:26.743Z,27.45
2022-12-06T16:58:17.041Z,27.23
2022-12-06T17:01:15.542Z,33.50
2022-12-06T17:04:11.516Z,31.48
2022-12-06T17:06:59.329Z,26.88
2022-12-06T17:09:54.325Z,28.67
2022-12-06T17:12:43.615Z,28.42
2022-12-06T17:15:31.376Z,25.00
2022-12-06T17:18:18.982Z,31.02
2022-12-06T17:21:07.857Z,34.20
2022-12-06T17:24:01.316Z,28.98
2022-12-06T17:26:49.244Z,34.45
2022-12-06T17:29:39.249Z,37.53
2022-12-06T17:32:28.462Z,33.97
2022-12-06T17:35:16.095Z,28.13
2022-12-06T17:41:32.773Z,30.00
2022-12-06T17:44:24.334Z,18.08
2022-12-06T17:47:12.498Z,24.17
2022-12-06T17:50:00.774Z,55.78
2022-12-06T17:52:51.632Z,48.78
2022-12-06T17:55:41.760Z,34.15
2022-12-06T17:58:30.160Z,39.65
2022-12-06T18:01:19.065Z,32.13
2022-12-06T18:04:14.593Z,28.90
2022-12-06T18:07:05.495Z,21.25
2022-12-06T18:09:58.520Z,59.15
2022-12-06T18:12:52.362Z,45.60
2022-12-06T18:15:43.942Z,71.07
2022-12-06T18:18:34.325Z,52.13
2022-12-06T18:21:22.415Z,35.33
2022-12-06T18:24:21.993Z,56.85
2022-12-06T18:27:19.224Z,34.88
2022-12-06T18:30:07.835Z,27.77
2022-12-06T18:32:55.450Z,33.05
2022-12-06T18:35:43.316Z,27.35
2022-12-06T18:38:31.800Z,19.55
2022-12-06T18:41:21.820Z,24.63
2022-12-06T18:44:10.590Z,27.40
2022-12-06T18:46:58.296Z,29.23
2022-12-06T18:49:45.866Z,31.27
2022-12-06T18:52:35.381Z,26.33
2022-12-06T18:55:23.447Z,31.63
2022-12-06T18:58:13.667Z,32.25
2022-12-06T19:01:05.277Z,25.00
2022-12-06T19:03:53.067Z,33.45
2022-12-06T19:06:43.375Z,30.38
2022-12-06T19:09:33.396Z,25.83
2022-12-06T19:12:26.340Z,22.30
2022-12-06T19:15:14.352Z,26.98
2022-12-06T19:18:02.107Z,26.83
2022-12-06T19:20:51.658Z,31.05
2022-12-06T19:23:41.900Z,32.47
2022-12-06T19:26:30.340Z,28.90
2022-12-06T19:29:18.950Z,36.55
2022-12-06T19:32:06.728Z,34.00
2022-12-06T19:34:56.334Z,29.00
2022-12-06T19:37:44.040Z,32.88
2022-12-06T19:40:31.942Z,34.33
2022-12-06T19:43:45.407Z,36.55
2022-12-06T19:46:33.471Z,37.17
2022-12-06T19:49:23.815Z,34.33
2022-12-06T19:52:11.776Z,37.22
2022-12-06T19:54:59.412Z,27.02
2022-12-06T19:57:48.767Z,28.70
2022-12-06T20:00:38.535Z,48.35
2022-12-06T20:03:26.685Z,37.05
2022-12-06T20:06:20.260Z,67.90
2022-12-06T20:09:08.203Z,36.00
2022-12-06T20:12:03.482Z,34.90
2022-12-06T20:14:56.726Z,40.92
2022-12-06T20:17:44.259Z,49.60
2022-12-06T20:20:31.840Z,28.75
2022-12-06T20:23:19.714Z,26.75
2022-12-06T20:26:09.652Z,36.30
2022-12-06T20:29:04.953Z,30.33
2022-12-06T20:31:54.893Z,42.85
2022-12-06T20:34:42.640Z,35.30
2022-12-06T20:37:30.257Z,37.97
2022-12-06T20:40:18.320Z,25.13
2022-12-06T20:43:05.984Z,29.23
2022-12-06T20:45:53.637Z,42.53
2022-12-06T20:48:42.534Z,32.97
2022-12-06T20:51:31.732Z,35.85
2022-12-06T20:54:19.496Z,36.75
2022-12-06T20:57:08.714Z,37.03
2022-12-06T20:59:56.354Z,29.60
2022-12-06T21:02:44.071Z,42.22
2022-12-06T21:05:31.750Z,29.23
2022-12-06T21:08:19.589Z,44.45
2022-12-06T21:11:24.241Z,32.58
2022-12-06T21:14:14.311Z,33.30
2022-12-06T21:17:01.842Z,36.50
2022-12-06T21:19:52.095Z,35.03
2022-12-06T21:22:39.712Z,47.08
2022-12-06T21:25:28.169Z,34.42
2022-12-06T21:28:28.694Z,38.92
2022-12-06T21:31:16.438Z,26.33
2022-12-06T21:34:04.526Z,27.75
2022-12-06T21:36:52.372Z,29.50
2022-12-06T21:39:39.926Z,26.45
2022-12-06T21:42:27.639Z,24.42
2022-12-06T21:45:15.342Z,34.88
2022-12-06T21:48:03.122Z,23.80
2022-12-06T21:50:50.744Z,31.95
2022-12-06T21:53:39.342Z,28.98
2022-12-06T21:56:29.869Z,32.08
2022-12-06T21:59:17.564Z,28.58
2022-12-06T22:02:05.281Z,30.23
2022-12-06T22:04:53.070Z,45.08
2022-12-06T22:07:40.819Z,32.03
2022-12-06T22:10:28.610Z,31.23
2022-12-06T22:13:16.203Z,34.85
2022-12-06T22:16:06.741Z,28.60
2022-12-06T22:18:55.455Z,26.08
2022-12-06T22:21:43.276Z,25.73
2022-12-06T22:24:30.840Z,31.50
2022-12-06T22:27:18.527Z,38.33
2022-12-06T22:30:06.877Z,34.83
2022-12-06T22:32:54.609Z,39.20
2022-12-06T22:35:42.468Z,29.00
2022-12-06T22:38:30.556Z,33.17
2022-12-06T22:41:19.663Z,39.22
2022-12-06T22:44:07.606Z,40.83
2022-12-06T22:46:55.269Z,36.90
2022-12-06T22:49:43.579Z,37.65
2022-12-06T22:52:31.232Z,32.58
2022-12-06T22:55:19.015Z,55.65
2022-12-06T22:58:06.712Z,42.47
2022-12-06T23:00:54.486Z,37.28
2022-12-06T23:03:42.548Z,41.45
2022-12-06T23:06:30.876Z,39.08
2022-12-06T23:09:18.473Z,35.20
2022-12-06T23:12:06.844Z,32.08
2022-12-06T23:14:54.558Z,42.25
2022-12-06T23:17:42.325Z,36.78
2022-12-06T23:20:30.041Z,44.53
2022-12-06T23:23:20.014Z,34.85
2022-12-06T23:26:10.960Z,35.95
2022-12-06T23:29:01.303Z,32.78
2022-12-06T23:31:49.237Z,28.00
2022-12-06T23:34:38.094Z,36.50
2022-12-06T23:37:25.726Z,35.42
2022-12-06T23:40:13.471Z,35.85
2022-12-06T23:43:01.053Z,36.28
2022-12-06T23:45:58.482Z,30.67
2022-12-06T23:48:48.070Z,36.25
2022-12-06T23:51:38.779Z,41.83
2022-12-06T23:54:26.324Z,36.60
2022-12-06T23:57:15.226Z,33.70
